createdAt,value
2023-02-05T00:01:44.584Z,5.50
2023-02-05T00:04:12.571Z,5.50
2023-02-05T00:06:40.410Z,5.40
2023-02-05T00:09:10.912Z,5.50
2023-02-05T00:11:38.995Z,5.40
2023-02-05T00:14:07.162Z,5.40
2023-02-05T00:16:35.812Z,5.40
2023-02-05T00:19:04.110Z,5.40
2023-02-05T00:21:32.330Z,5.40
2023-02-05T00:24:00.223Z,5.40
2023-02-05T00:26:28.308Z,5.40
2023-02-05T00:28:56.191Z,5.40
2023-02-05T00:31:24.603Z,5.40
2023-02-05T00:33:53.075Z,5.40
2023-02-05T00:36:21.525Z,5.40
2023-02-05T00:38:50.058Z,5.30
2023-02-05T00:41:19.999Z,5.30
2023-02-05T00:43:48.168Z,5.30
2023-02-05T00:46:16.324Z,5.30
2023-02-05T00:48:45.168Z,5.20
2023-02-05T00:51:13.088Z,5.30
2023-02-05T00:53:41.232Z,5.30
2023-02-05T00:56:09.344Z,5.30
2023-02-05T00:58:37.629Z,5.30
2023-02-05T01:01:06.028Z,5.30
2023-02-05T01:03:34.104Z,5.30
2023-02-05T01:06:03.597Z,5.30
2023-02-05T01:08:31.741Z,5.30
2023-02-05T01:10:59.889Z,5.30
2023-02-05T01:13:28.173Z,5.30
2023-02-05T01:15:56.205Z,5.30
2023-02-05T01:18:24.243Z,5.30
2023-02-05T01:20:52.241Z,5.30
2023-02-05T01:23:20.370Z,5.20
2023-02-05T01:25:48.319Z,5.20
2023-02-05T01:28:16.338Z,5.20
2023-02-05T01:30:47.741Z,5.10
2023-02-05T01:33:15.903Z,5.10
2023-02-05T01:35:45.193Z,5.10
2023-02-05T01:38:13.418Z,5.20
2023-02-05T01:40:41.495Z,5.10
2023-02-05T01:43:17.569Z,5.10
2023-02-05T01:45:58.054Z,5.20
2023-02-05T01:48:29.416Z,5.20
2023-02-05T01:51:04.706Z,5.20
2023-02-05T01:53:34.546Z,5.20
2023-02-05T01:56:05.013Z,5.20
2023-02-05T01:58:36.300Z,5.20
2023-02-05T02:01:04.321Z,5.20
2023-02-05T02:03:32.715Z,5.20
2023-02-05T02:06:00.842Z,5.20
2023-02-05T02:08:28.828Z,5.10
2023-02-05T02:10:58.596Z,5.10
2023-02-05T02:13:27.882Z,5.10
2023-02-05T02:15:55.980Z,5.00
2023-02-05T02:18:28.005Z,5.00
2023-02-05T02:21:07.196Z,5.00
2023-02-05T02:23:38.228Z,5.00
2023-02-05T02:26:15.027Z,5.00
2023-02-05T02:28:46.107Z,5.00
2023-02-05T02:31:17.238Z,5.10
2023-02-05T02:33:56.625Z,5.10
2023-02-05T02:36:29.679Z,5.10
2023-02-05T02:39:02.390Z,5.10
2023-02-05T02:41:46.069Z,5.10
2023-02-05T02:44:23.886Z,5.10
2023-02-05T02:46:57.160Z,5.00
2023-02-05T02:49:28.992Z,5.00
2023-02-05T02:51:58.297Z,5.00
2023-02-05T02:54:27.013Z,5.00
2023-02-05T02:56:57.030Z,4.90
2023-02-05T02:59:29.292Z,4.90
2023-02-05T03:01:58.937Z,4.90
2023-02-05T03:04:32.532Z,4.90
2023-02-05T03:07:06.847Z,4.90
2023-02-05T03:09:48.209Z,4.90
2023-02-05T03:12:18.861Z,5.00
2023-02-05T03:14:46.959Z,5.00
2023-02-05T03:17:19.077Z,5.00
2023-02-05T03:19:51.418Z,5.00
2023-02-05T03:22:19.357Z,5.00
2023-02-05T03:24:47.430Z,5.00
2023-02-05T03:27:15.579Z,4.90
2023-02-05T03:29:47.449Z,4.90
2023-02-05T03:32:31.051Z,4.90
2023-02-05T03:35:07.505Z,4.90
2023-02-05T03:37:40.378Z,4.80
2023-02-05T03:40:08.457Z,4.80
2023-02-05T03:42:44.003Z,4.80
2023-02-05T03:45:44.506Z,4.90
2023-02-05T03:48:30.998Z,4.90
2023-02-05T03:50:58.948Z,4.90
2023-02-05T03:53:42.037Z,4.90
2023-02-05T03:56:14.046Z,4.80
2023-02-05T03:58:43.836Z,4.80
2023-02-05T04:01:12.640Z,4.80
2023-02-05T04:03:43.186Z,4.80
2023-02-05T04:06:12.692Z,4.90
2023-02-05T04:08:41.291Z,4.90
2023-02-05T04:11:09.838Z,4.90
2023-02-05T04:13:38.115Z,4.90
2023-02-05T04:16:08.757Z,4.80
2023-02-05T04:18:36.817Z,4.80
2023-02-05T04:21:04.968Z,4.80
2023-02-05T04:23:35.798Z,4.80
2023-02-05T04:26:03.927Z,4.80
2023-02-05T04:28:37.361Z,4.80
2023-02-05T04:31:08.101Z,4.80
2023-02-05T04:33:37.011Z,4.80
2023-02-05T04:36:05.441Z,4.80
2023-02-05T04:38:33.827Z,4.80
2023-02-05T04:41:01.994Z,4.80
2023-02-05T04:43:29.944Z,4.80
2023-02-05T04:45:57.938Z,4.80
2023-02-05T04:48:25.846Z,4.80
2023-02-05T04:50:53.753Z,4.70
2023-02-05T04:53:21.652Z,4.80
2023-02-05T04:55:49.530Z,4.80
2023-02-05T04:58:17.508Z,4.80
2023-02-05T05:00:45.378Z,4.80
2023-02-05T05:03:13.371Z,4.80
2023-02-05T05:05:41.394Z,4.80
2023-02-05T05:08:09.383Z,4.80
2023-02-05T05:10:38.523Z,4.80
2023-02-05T05:13:06.576Z,4.80
2023-02-05T05:15:34.682Z,4.70
2023-02-05T05:18:03.220Z,4.70
2023-02-05T05:20:31.182Z,4.70
2023-02-05T05:23:00.680Z,4.70
2023-02-05T05:25:28.603Z,4.70
2023-02-05T05:27:56.782Z,4.70
2023-02-05T05:30:24.902Z,4.70
2023-02-05T05:32:52.756Z,4.70
2023-02-05T05:35:20.857Z,4.70
2023-02-05T05:37:48.800Z,4.80
2023-02-05T05:40:35.485Z,4.80
2023-02-05T05:43:22.042Z,4.80
2023-02-05T05:45:50.100Z,4.80
2023-02-05T05:48:18.072Z,4.70
2023-02-05T05:50:46.912Z,4.70
2023-02-05T05:53:15.072Z,4.70
2023-02-05T05:55:43.208Z,4.70
2023-02-05T05:58:11.380Z,4.70
2023-02-05T06:00:40.493Z,4.70
2023-02-05T06:03:10.266Z,4.70
2023-02-05T06:05:38.305Z,4.70
2023-02-05T06:08:06.339Z,4.70
2023-02-05T06:10:34.198Z,4.70
2023-02-05T06:13:02.057Z,4.80
2023-02-05T06:15:30.022Z,4.80
2023-02-05T06:17:58.110Z,4.80
2023-02-05T06:20:26.003Z,4.80
2023-02-05T06:22:54.065Z,4.80
2023-02-05T06:25:22.001Z,4.70
2023-02-05T06:27:51.174Z,4.70
2023-02-05T06:30:19.183Z,4.70
2023-02-05T06:32:47.246Z,4.70
2023-02-05T06:35:15.399Z,4.70
2023-02-05T06:37:47.560Z,4.70
2023-02-05T06:40:18.425Z,4.60
2023-02-05T06:42:46.588Z,4.70
2023-02-05T06:45:14.527Z,4.70
2023-02-05T06:47:42.426Z,4.80
2023-02-05T06:50:10.940Z,4.90
2023-02-05T06:52:38.903Z,4.90
2023-02-05T06:55:07.560Z,5.00
2023-02-05T06:57:35.491Z,5.10
2023-02-05T07:00:04.236Z,5.10
2023-02-05T07:02:32.195Z,5.20
2023-02-05T07:05:00.353Z,5.10
2023-02-05T07:07:28.656Z,5.10
2023-02-05T07:09:56.634Z,5.10
2023-02-05T07:12:24.488Z,5.10
2023-02-05T07:14:52.457Z,5.10
2023-02-05T07:17:21.279Z,5.10
2023-02-05T07:19:49.148Z,5.10
2023-02-05T07:22:17.271Z,5.10
2023-02-05T07:24:45.164Z,5.10
2023-02-05T07:27:13.453Z,5.10
2023-02-05T07:29:41.395Z,5.10
2023-02-05T07:32:09.535Z,5.10
2023-02-05T07:34:37.601Z,5.10
2023-02-05T07:37:05.889Z,5.10
2023-02-05T07:39:33.868Z,5.20
2023-02-05T07:42:01.795Z,5.20
2023-02-05T07:44:38.271Z,5.20
2023-02-05T07:47:06.236Z,5.20
2023-02-05T07:49:34.243Z,5.30
2023-02-05T07:52:02.184Z,5.30
2023-02-05T07:54:30.107Z,5.30
2023-02-05T07:57:00.476Z,5.40
2023-02-05T07:59:28.637Z,5.40
2023-02-05T08:01:56.516Z,5.40
2023-02-05T08:04:24.654Z,5.40
2023-02-05T08:06:52.664Z,5.40
2023-02-05T08:09:20.715Z,5.50
2023-02-05T08:11:48.621Z,5.50
2023-02-05T08:14:16.713Z,5.50
2023-02-05T08:16:44.611Z,5.60
2023-02-05T08:19:14.598Z,5.60
2023-02-05T08:21:43.516Z,5.60
2023-02-05T08:24:11.528Z,5.70
2023-02-05T08:26:40.598Z,5.70
2023-02-05T08:29:08.743Z,5.70
2023-02-05T08:31:36.603Z,5.70
2023-02-05T08:34:04.741Z,5.70
2023-02-05T08:36:32.630Z,5.70
2023-02-05T08:39:00.722Z,5.70
2023-02-05T08:41:28.793Z,5.80
2023-02-05T08:43:56.866Z,5.80
2023-02-05T08:46:31.620Z,5.80
2023-02-05T08:49:01.718Z,5.90
2023-02-05T08:51:29.954Z,6.00
2023-02-05T08:53:57.943Z,6.00
2023-02-05T08:56:25.935Z,6.10
2023-02-05T08:58:53.884Z,6.10
2023-02-05T09:01:22.074Z,6.20
2023-02-05T09:03:50.245Z,6.30
2023-02-05T09:06:18.315Z,6.30
2023-02-05T09:08:47.232Z,6.40
2023-02-05T09:11:20.414Z,6.50
2023-02-05T09:13:48.446Z,6.50
2023-02-05T09:16:16.531Z,6.60
2023-02-05T09:18:44.613Z,6.70
2023-02-05T09:21:13.392Z,6.70
2023-02-05T09:23:44.529Z,6.80
2023-02-05T09:26:12.527Z,6.90
2023-02-05T09:28:40.682Z,7.00
2023-02-05T09:31:18.688Z,7.10
2023-02-05T09:33:47.031Z,7.20
2023-02-05T09:36:22.136Z,7.30
2023-02-05T09:38:50.703Z,7.50
2023-02-05T09:41:24.014Z,7.60
2023-02-05T09:43:59.173Z,7.80
2023-02-05T09:46:30.328Z,8.00
2023-02-05T09:49:03.595Z,8.20
2023-02-05T09:51:35.822Z,8.40
2023-02-05T09:54:07.506Z,8.60
2023-02-05T09:56:37.382Z,8.80
2023-02-05T09:59:06.986Z,9.00
2023-02-05T10:01:39.719Z,9.10
2023-02-05T10:04:08.394Z,9.30
2023-02-05T10:06:48.765Z,9.60
2023-02-05T10:09:26.101Z,9.80
2023-02-05T10:12:15.127Z,9.90
2023-02-05T10:14:56.843Z,10.20
2023-02-05T10:17:30.968Z,10.40
2023-02-05T10:20:17.652Z,10.70
2023-02-05T10:23:02.236Z,10.90
2023-02-05T10:25:33.885Z,11.20
2023-02-05T10:28:06.225Z,11.20
2023-02-05T10:30:43.069Z,11.10
2023-02-05T10:33:16.333Z,11.20
2023-02-05T10:35:56.753Z,11.10
2023-02-05T10:38:26.078Z,11.00
2023-02-05T10:40:59.390Z,10.90
2023-02-05T10:43:43.281Z,10.90
2023-02-05T10:46:13.894Z,10.80
2023-02-05T10:48:53.402Z,10.90
2023-02-05T10:51:28.982Z,11.00
2023-02-05T10:53:57.584Z,11.00
2023-02-05T10:56:26.576Z,11.30
2023-02-05T10:58:54.602Z,11.60
2023-02-05T11:01:23.851Z,12.00
2023-02-05T11:03:54.337Z,12.10
2023-02-05T11:06:23.999Z,12.10
2023-02-05T11:08:52.334Z,12.20
2023-02-05T11:11:28.965Z,12.50
2023-02-05T11:14:01.568Z,12.70
2023-02-05T11:16:56.146Z,12.70
2023-02-05T11:19:26.063Z,12.50
2023-02-05T11:21:58.400Z,12.40
2023-02-05T11:24:31.233Z,12.50
2023-02-05T11:27:13.887Z,12.60
2023-02-05T11:29:42.222Z,12.80
2023-02-05T11:32:31.555Z,13.20
2023-02-05T11:35:21.437Z,13.50
2023-02-05T11:37:52.665Z,13.40
2023-02-05T11:40:25.561Z,13.10
2023-02-05T11:43:14.320Z,12.80
2023-02-05T11:45:47.965Z,12.60
2023-02-05T11:48:38.051Z,12.30
2023-02-05T11:51:07.539Z,12.20
2023-02-05T11:53:37.613Z,12.20
2023-02-05T11:56:12.044Z,12.20
2023-02-05T11:58:39.958Z,12.10
2023-02-05T12:01:37.425Z,12.00
2023-02-05T12:04:11.630Z,12.00
2023-02-05T12:06:52.572Z,11.90
2023-02-05T12:09:24.854Z,11.70
2023-02-05T12:12:18.962Z,11.60
2023-02-05T12:14:50.772Z,11.50
2023-02-05T12:17:18.689Z,11.30
2023-02-05T12:19:55.971Z,11.20
2023-02-05T12:22:30.839Z,11.00
2023-02-05T12:25:17.301Z,10.90
2023-02-05T12:27:57.684Z,10.70
2023-02-05T12:30:25.677Z,10.50
2023-02-05T12:33:06.056Z,10.50
2023-02-05T12:35:40.259Z,10.50
2023-02-05T12:38:32.099Z,10.40
2023-02-05T12:41:19.223Z,10.40
2023-02-05T12:43:48.835Z,10.50
2023-02-05T12:46:35.476Z,10.50
2023-02-05T12:49:05.441Z,10.50
2023-02-05T12:52:02.979Z,10.50
2023-02-05T12:54:31.002Z,10.40
2023-02-05T12:57:04.590Z,10.30
2023-02-05T12:59:46.864Z,10.20
2023-02-05T13:02:24.013Z,10.20
2023-02-05T13:05:12.722Z,10.10
2023-02-05T13:07:45.905Z,10.10
2023-02-05T13:10:40.219Z,10.00
2023-02-05T13:13:12.073Z,9.90
2023-02-05T13:15:42.368Z,9.80
2023-02-05T13:18:17.822Z,9.80
2023-02-05T13:21:24.016Z,9.80
2023-02-05T13:24:12.932Z,9.70
2023-02-05T13:27:02.927Z,9.70
2023-02-05T13:29:33.723Z,9.70
2023-02-05T13:32:14.787Z,9.70
2023-02-05T13:34:44.216Z,9.70
2023-02-05T13:37:24.339Z,9.70
2023-02-05T13:40:11.078Z,9.80
2023-02-05T13:42:45.044Z,9.80
2023-02-05T13:45:41.797Z,9.80
2023-02-05T13:48:33.020Z,9.80
2023-02-05T13:51:19.369Z,9.70
2023-02-05T13:53:57.423Z,9.60
2023-02-05T13:56:54.572Z,9.50
2023-02-05T13:59:28.594Z,9.40
2023-02-05T14:01:58.541Z,9.20
2023-02-05T14:04:35.415Z,9.10
2023-02-05T14:07:05.020Z,8.90
2023-02-05T14:09:38.688Z,8.80
2023-02-05T14:12:08.657Z,8.60
2023-02-05T14:14:37.559Z,8.50
2023-02-05T14:17:24.302Z,8.40
2023-02-05T14:19:57.478Z,8.30
2023-02-05T14:22:44.841Z,8.20
2023-02-05T14:25:31.460Z,8.10
2023-02-05T14:28:00.119Z,8.00
2023-02-05T14:30:33.031Z,7.90
2023-02-05T14:33:03.103Z,7.80
2023-02-05T14:35:39.176Z,7.70
2023-02-05T14:38:25.966Z,7.70
2023-02-05T14:41:06.145Z,7.60
2023-02-05T14:43:36.316Z,7.60
2023-02-05T14:46:06.667Z,7.50
2023-02-05T14:48:36.762Z,7.40
2023-02-05T14:51:25.125Z,7.40
2023-02-05T14:53:59.382Z,7.30
2023-02-05T14:56:34.794Z,7.30
2023-02-05T14:59:05.597Z,7.20
2023-02-05T15:01:33.666Z,7.20
2023-02-05T15:04:03.105Z,7.10
2023-02-05T15:06:38.103Z,7.00
2023-02-05T15:09:13.624Z,7.00
2023-02-05T15:11:44.669Z,7.00
2023-02-05T15:14:19.037Z,6.90
2023-02-05T15:17:07.289Z,6.90
2023-02-05T15:19:39.666Z,6.80
2023-02-05T15:22:11.675Z,6.80
2023-02-05T15:24:39.966Z,6.70
2023-02-05T15:27:14.024Z,6.70
2023-02-05T15:29:47.747Z,6.70
2023-02-05T15:32:36.300Z,6.60
2023-02-05T15:35:06.561Z,6.60
2023-02-05T15:37:38.893Z,6.60
2023-02-05T15:40:12.733Z,6.60
2023-02-05T15:42:42.183Z,6.70
2023-02-05T15:45:23.819Z,6.80
2023-02-05T15:48:10.271Z,6.70
2023-02-05T15:50:44.626Z,6.80
2023-02-05T15:53:33.494Z,6.80
2023-02-05T15:56:19.824Z,6.80
2023-02-05T15:59:01.179Z,6.70
2023-02-05T16:01:30.634Z,6.70
2023-02-05T16:03:58.774Z,6.70
2023-02-05T16:06:27.925Z,6.60
2023-02-05T16:08:56.389Z,6.50
2023-02-05T16:11:30.810Z,6.40
2023-02-05T16:14:04.851Z,6.40
2023-02-05T16:16:34.269Z,6.40
2023-02-05T16:19:04.066Z,6.50
2023-02-05T16:21:33.349Z,6.50
2023-02-05T16:24:03.398Z,6.50
2023-02-05T16:26:40.355Z,6.50
2023-02-05T16:29:24.792Z,6.50
2023-02-05T16:32:03.404Z,6.60
2023-02-05T16:34:32.217Z,6.50
2023-02-05T16:37:02.731Z,6.50
2023-02-05T16:39:37.957Z,6.50
2023-02-05T16:42:08.348Z,6.40
2023-02-05T16:44:37.602Z,6.40
2023-02-05T16:47:11.611Z,6.40
2023-02-05T16:49:40.026Z,6.30
2023-02-05T16:52:43.430Z,6.30
2023-02-05T16:55:26.537Z,6.30
2023-02-05T16:57:55.768Z,6.30
2023-02-05T17:00:26.178Z,6.20
2023-02-05T17:02:55.886Z,6.10
2023-02-05T17:05:32.336Z,6.10
2023-02-05T17:08:01.901Z,6.10
2023-02-05T17:10:29.877Z,6.10
2023-02-05T17:12:57.914Z,6.10
2023-02-05T17:15:27.445Z,6.10
2023-02-05T17:17:57.236Z,6.10
2023-02-05T17:20:28.424Z,6.20
2023-02-05T17:23:05.705Z,6.20
2023-02-05T17:25:55.397Z,6.20
2023-02-05T17:28:27.705Z,6.20
2023-02-05T17:30:58.266Z,6.20
2023-02-05T17:33:27.557Z,6.20
2023-02-05T17:35:55.930Z,6.10
2023-02-05T17:38:24.005Z,6.10
2023-02-05T17:41:11.933Z,6.00
2023-02-05T17:43:40.238Z,6.00
2023-02-05T17:46:13.238Z,6.00
2023-02-05T17:48:41.488Z,5.90
2023-02-05T17:51:16.675Z,5.90
2023-02-05T17:53:44.635Z,5.90
2023-02-05T17:56:14.024Z,5.90
2023-02-05T17:58:42.343Z,5.90
2023-02-05T18:01:12.223Z,5.90
2023-02-05T18:03:40.211Z,5.90
2023-02-05T18:06:08.374Z,6.00
2023-02-05T18:08:37.429Z,6.00
2023-02-05T18:11:05.370Z,6.00
2023-02-05T18:13:33.498Z,6.00
2023-02-05T18:16:03.758Z,6.00
2023-02-05T18:18:32.189Z,5.90
2023-02-05T18:21:00.324Z,5.90
2023-02-05T18:23:29.775Z,5.90
2023-02-05T18:25:58.043Z,5.80
2023-02-05T18:28:26.225Z,5.80
2023-02-05T18:30:58.340Z,5.80
2023-02-05T18:33:26.605Z,5.80
2023-02-05T18:35:54.982Z,5.80
2023-02-05T18:38:24.355Z,5.80
2023-02-05T18:40:52.178Z,5.80
2023-02-05T18:43:20.274Z,5.80
2023-02-05T18:45:48.209Z,5.80
2023-02-05T18:48:16.134Z,5.80
2023-02-05T18:50:44.371Z,5.80
2023-02-05T18:53:12.244Z,5.70
2023-02-05T18:55:40.748Z,5.70
2023-02-05T18:58:08.821Z,5.70
2023-02-05T19:00:37.244Z,5.70
2023-02-05T19:03:05.262Z,5.70
2023-02-05T19:05:34.686Z,5.70
2023-02-05T19:08:03.423Z,5.70
2023-02-05T19:10:32.837Z,5.70
2023-02-05T19:13:00.942Z,5.70
2023-02-05T19:15:29.078Z,5.70
2023-02-05T19:17:56.962Z,5.70
2023-02-05T19:20:24.796Z,5.70
2023-02-05T19:22:53.099Z,5.70
2023-02-05T19:25:21.130Z,5.60
2023-02-05T19:27:48.988Z,5.60
2023-02-05T19:30:16.953Z,5.60
2023-02-05T19:32:46.386Z,5.60
2023-02-05T19:35:14.640Z,5.60
2023-02-05T19:37:42.591Z,5.50
2023-02-05T19:40:12.797Z,5.50
2023-02-05T19:42:41.924Z,5.50
2023-02-05T19:45:10.201Z,5.50
2023-02-05T19:47:38.130Z,5.50
2023-02-05T19:50:06.247Z,5.50
2023-02-05T19:52:34.114Z,5.50
2023-02-05T19:55:02.066Z,5.50
2023-02-05T19:57:29.962Z,5.60
2023-02-05T20:00:01.020Z,5.60
2023-02-05T20:02:29.174Z,5.60
2023-02-05T20:04:57.268Z,5.60
2023-02-05T20:07:25.327Z,5.50
2023-02-05T20:09:53.377Z,5.50
2023-02-05T20:12:21.252Z,5.50
2023-02-05T20:14:49.262Z,5.40
2023-02-05T20:17:18.106Z,5.40
2023-02-05T20:19:46.260Z,5.40
2023-02-05T20:22:14.342Z,5.40
2023-02-05T20:24:42.501Z,5.30
2023-02-05T20:27:10.556Z,5.30
2023-02-05T20:29:57.181Z,5.30
2023-02-05T20:32:25.296Z,5.40
2023-02-05T20:34:53.506Z,5.40
2023-02-05T20:37:21.475Z,5.40
2023-02-05T20:39:49.532Z,5.30
2023-02-05T20:42:17.452Z,5.40
2023-02-05T20:44:45.535Z,5.40
2023-02-05T20:47:14.707Z,5.40
2023-02-05T20:49:42.947Z,5.40
2023-02-05T20:52:11.303Z,5.40
2023-02-05T20:54:39.450Z,5.40
2023-02-05T20:57:08.100Z,5.30
2023-02-05T20:59:37.031Z,5.30
2023-02-05T21:02:05.075Z,5.30
2023-02-05T21:04:36.550Z,5.20
2023-02-05T21:07:04.723Z,5.20
2023-02-05T21:09:32.708Z,5.20
2023-02-05T21:12:00.548Z,5.20
2023-02-05T21:14:28.580Z,5.20
2023-02-05T21:16:56.520Z,5.10
2023-02-05T21:19:24.475Z,5.10
2023-02-05T21:21:52.687Z,5.20
2023-02-05T21:24:21.670Z,5.20
2023-02-05T21:26:50.306Z,5.10
2023-02-05T21:29:19.567Z,5.10
2023-02-05T21:31:48.893Z,5.10
2023-02-05T21:34:18.595Z,5.10
2023-02-05T21:36:48.306Z,5.00
2023-02-05T21:39:16.639Z,5.00
2023-02-05T21:41:47.884Z,5.00
2023-02-05T21:44:15.777Z,5.00
2023-02-05T21:46:43.718Z,5.00
2023-02-05T21:49:12.129Z,5.00
2023-02-05T21:51:42.633Z,5.00
2023-02-05T21:54:11.322Z,5.00
2023-02-05T21:56:40.968Z,5.00
2023-02-05T21:59:10.116Z,4.90
2023-02-05T22:01:38.269Z,4.90
2023-02-05T22:04:11.070Z,4.90
2023-02-05T22:06:39.380Z,4.90
2023-02-05T22:09:08.330Z,4.90
2023-02-05T22:11:36.442Z,4.90
2023-02-05T22:14:04.347Z,5.00
2023-02-05T22:16:33.451Z,4.90
2023-02-05T22:19:02.083Z,5.00
2023-02-05T22:21:34.490Z,5.00
2023-02-05T22:24:05.309Z,5.00
2023-02-05T22:26:35.099Z,4.90
2023-02-05T22:29:04.810Z,4.90
2023-02-05T22:31:32.869Z,4.80
2023-02-05T22:34:01.072Z,4.80
2023-02-05T22:36:30.068Z,4.80
2023-02-05T22:38:58.256Z,4.80
2023-02-05T22:41:27.691Z,4.70
2023-02-05T22:43:56.622Z,4.70
2023-02-05T22:46:26.095Z,4.70
2023-02-05T22:48:54.621Z,4.80
2023-02-05T22:51:23.948Z,4.80
2023-02-05T22:53:55.602Z,4.80
2023-02-05T22:56:24.293Z,4.80
2023-02-05T22:58:52.650Z,4.80
2023-02-05T23:01:26.802Z,4.80
2023-02-05T23:03:58.156Z,4.80
2023-02-05T23:06:27.828Z,4.80
2023-02-05T23:08:57.484Z,4.80
2023-02-05T23:11:25.919Z,4.80
2023-02-05T23:13:53.863Z,4.80
2023-02-05T23:16:23.630Z,4.80
2023-02-05T23:18:52.096Z,4.70
2023-02-05T23:21:22.075Z,4.70
2023-02-05T23:23:50.474Z,4.70
2023-02-05T23:26:20.158Z,4.70
2023-02-05T23:28:48.747Z,4.70
2023-02-05T23:31:17.183Z,4.70
2023-02-05T23:33:45.093Z,4.70
2023-02-05T23:36:13.215Z,4.70
2023-02-05T23:38:42.234Z,4.70
2023-02-05T23:41:10.297Z,4.70
2023-02-05T23:43:38.257Z,4.70
2023-02-05T23:46:07.992Z,4.70
2023-02-05T23:48:36.260Z,4.70
2023-02-05T23:51:04.256Z,4.80
2023-02-05T23:53:32.277Z,4.70
2023-02-05T23:56:01.172Z,4.80
2023-02-05T23:58:29.074Z,4.80
